sensor_id;sensor_type;location;lat;lon;timestamp;pressure;altitude;pressure_sealevel;temperature;humidity
72950;BME280;64868;45.710;9.590;2024-03-02T00:00:10;98123.09;;;8.94;92.52
72950;BME280;64868;45.710;9.590;2024-03-02T00:02:44;98076.91;;;8.65;91.26
72950;BME280;64868;45.710;9.590;2024-03-02T00:08:27;98130.75;;;8.92;92.03
72950;BME280;64868;45.710;9.590;2024-03-02T00:11:00;98114.03;;;8.81;92.37
72950;BME280;64868;45.710;9.590;2024-03-02T00:13:30;98131.72;;;8.96;91.68
72950;BME280;64868;45.710;9.590;2024-03-02T00:16:00;98126.59;;;8.95;91.70
72950;BME280;64868;45.710;9.590;2024-03-02T00:18:30;98118.66;;;8.89;91.23
72950;BME280;64868;45.710;9.590;2024-03-02T00:20:59;98130.28;;;8.99;91.24
72950;BME280;64868;45.710;9.590;2024-03-02T00:23:41;98099.22;;;8.79;91.75
72950;BME280;64868;45.710;9.590;2024-03-02T00:26:15;98132.97;;;8.99;91.48
72950;BME280;64868;45.710;9.590;2024-03-02T00:28:54;98137.63;;;8.98;91.53
72950;BME280;64868;45.710;9.590;2024-03-02T00:31:22;98134.72;;;8.95;92.23
72950;BME280;64868;45.710;9.590;2024-03-02T00:33:50;98132.19;;;8.98;92.46
72950;BME280;64868;45.710;9.590;2024-03-02T00:36:22;98132.97;;;8.99;91.83
72950;BME280;64868;45.710;9.590;2024-03-02T00:38:53;98132.84;;;8.95;92.89
72950;BME280;64868;45.710;9.590;2024-03-02T00:41:32;98132.69;;;8.91;92.84
72950;BME280;64868;45.710;9.590;2024-03-02T00:44:07;98139.88;;;8.87;92.51
72950;BME280;64868;45.710;9.590;2024-03-02T00:46:51;98138.75;;;8.88;92.39
72950;BME280;64868;45.710;9.590;2024-03-02T00:49:25;98127.78;;;8.85;93.57
72950;BME280;64868;45.710;9.590;2024-03-02T00:51:54;98140.81;;;8.91;93.28
72950;BME280;64868;45.710;9.590;2024-03-02T00:54:23;98133.81;;;8.90;92.77
72950;BME280;64868;45.710;9.590;2024-03-02T00:56:52;98129.34;;;8.86;92.97
72950;BME280;64868;45.710;9.590;2024-03-02T00:59:34;98111.69;;;8.71;92.47
72950;BME280;64868;45.710;9.590;2024-03-02T01:02:12;98119.66;;;8.76;93.16
72950;BME280;64868;45.710;9.590;2024-03-02T01:05:00;98128.72;;;8.80;93.54
72950;BME280;64868;45.710;9.590;2024-03-02T01:10:55;98092.28;;;8.43;93.56
72950;BME280;64868;45.710;9.590;2024-03-02T01:13:35;98120.00;;;8.57;93.79
72950;BME280;64868;45.710;9.590;2024-03-02T01:16:17;98118.72;;;8.55;93.16
72950;BME280;64868;45.710;9.590;2024-03-02T01:19:12;98129.22;;;8.65;93.65
72950;BME280;64868;45.710;9.590;2024-03-02T01:21:45;98115.22;;;8.54;94.00
72950;BME280;64868;45.710;9.590;2024-03-02T01:24:10;98120.34;;;8.56;93.81
72950;BME280;64868;45.710;9.590;2024-03-02T01:26:42;98122.88;;;8.61;92.82
72950;BME280;64868;45.710;9.590;2024-03-02T01:32:40;98124.91;;;8.64;92.95
72950;BME280;64868;45.710;9.590;2024-03-02T01:35:07;98123.34;;;8.63;93.57
72950;BME280;64868;45.710;9.590;2024-03-02T01:37:45;98124.13;;;8.63;93.27
72950;BME280;64868;45.710;9.590;2024-03-02T01:40:25;98120.16;;;8.61;93.59
72950;BME280;64868;45.710;9.590;2024-03-02T01:43:13;98119.50;;;8.64;93.34
72950;BME280;64868;45.710;9.590;2024-03-02T01:45:44;98106.78;;;8.56;93.94
72950;BME280;64868;45.710;9.590;2024-03-02T01:48:10;98126.34;;;8.70;93.12
72950;BME280;64868;45.710;9.590;2024-03-02T01:50:41;98116.97;;;8.59;94.02
72950;BME280;64868;45.710;9.590;2024-03-02T01:53:20;98117.44;;;8.61;93.11
72950;BME280;64868;45.710;9.590;2024-03-02T01:55:46;98115.66;;;8.65;93.22
72950;BME280;64868;45.710;9.590;2024-03-02T01:58:12;98125.09;;;8.68;92.99
72950;BME280;64868;45.710;9.590;2024-03-02T02:00:43;98103.91;;;8.52;92.20
72950;BME280;64868;45.710;9.590;2024-03-02T02:03:11;98121.41;;;8.63;92.51
72950;BME280;64868;45.710;9.590;2024-03-02T02:05:50;98105.81;;;8.52;93.22
72950;BME280;64868;45.710;9.590;2024-03-02T02:11:20;98111.56;;;8.59;93.69
72950;BME280;64868;45.710;9.590;2024-03-02T02:13:47;98115.53;;;8.61;93.73
72950;BME280;64868;45.710;9.590;2024-03-02T02:16:26;98097.69;;;8.52;94.09
72950;BME280;64868;45.710;9.590;2024-03-02T02:19:15;98111.38;;;8.64;93.27
72950;BME280;64868;45.710;9.590;2024-03-02T02:22:12;98094.66;;;8.53;93.96
72950;BME280;64868;45.710;9.590;2024-03-02T02:25:04;98107.53;;;8.65;93.89
72950;BME280;64868;45.710;9.590;2024-03-02T02:27:31;98108.66;;;8.64;94.02
72950;BME280;64868;45.710;9.590;2024-03-02T02:29:57;98069.78;;;8.43;93.63
72950;BME280;64868;45.710;9.590;2024-03-02T02:32:25;98072.81;;;8.50;93.96
72950;BME280;64868;45.710;9.590;2024-03-02T02:35:04;98103.06;;;8.69;93.50
72950;BME280;64868;45.710;9.590;2024-03-02T02:37:30;98112.81;;;8.70;93.43
72950;BME280;64868;45.710;9.590;2024-03-02T02:39:56;98106.25;;;8.71;93.40
72950;BME280;64868;45.710;9.590;2024-03-02T02:42:31;98064.56;;;8.46;92.97
72950;BME280;64868;45.710;9.590;2024-03-02T02:45:29;98101.94;;;8.70;93.83
72950;BME280;64868;45.710;9.590;2024-03-02T02:47:55;98090.34;;;8.61;93.77
72950;BME280;64868;45.710;9.590;2024-03-02T02:50:28;98102.28;;;8.60;93.35
72950;BME280;64868;45.710;9.590;2024-03-02T02:52:56;98092.72;;;8.54;94.14
72950;BME280;64868;45.710;9.590;2024-03-02T02:55:22;98102.63;;;8.58;93.68
72950;BME280;64868;45.710;9.590;2024-03-02T02:57:47;98106.78;;;8.56;93.67
72950;BME280;64868;45.710;9.590;2024-03-02T03:00:14;98059.28;;;8.24;93.46
72950;BME280;64868;45.710;9.590;2024-03-02T03:05:46;98098.34;;;8.49;93.58
72950;BME280;64868;45.710;9.590;2024-03-02T03:08:46;98100.72;;;8.59;94.10
72950;BME280;64868;45.710;9.590;2024-03-02T03:11:44;98100.84;;;8.62;94.56
72950;BME280;64868;45.710;9.590;2024-03-02T03:14:27;98108.50;;;8.60;94.11
72950;BME280;64868;45.710;9.590;2024-03-02T03:16:52;98100.72;;;8.59;93.96
72950;BME280;64868;45.710;9.590;2024-03-02T03:19:32;98102.28;;;8.60;93.62
72950;BME280;64868;45.710;9.590;2024-03-02T03:22:05;98091.78;;;8.50;93.78
72950;BME280;64868;45.710;9.590;2024-03-02T03:27:48;98088.94;;;8.46;93.45
72950;BME280;64868;45.710;9.590;2024-03-02T03:30:22;98109.00;;;8.54;93.61
72950;BME280;64868;45.710;9.590;2024-03-02T03:32:48;98106.94;;;8.51;93.66
72950;BME280;64868;45.710;9.590;2024-03-02T03:35:29;98106.47;;;8.49;94.59
72950;BME280;64868;45.710;9.590;2024-03-02T03:38:04;98104.88;;;8.48;94.46
72950;BME280;64868;45.710;9.590;2024-03-02T03:40:32;98103.28;;;8.47;94.66
72950;BME280;64868;45.710;9.590;2024-03-02T03:42:59;98113.16;;;8.51;94.04
72950;BME280;64868;45.710;9.590;2024-03-02T03:45:39;98093.72;;;8.41;94.73
72950;BME280;64868;45.710;9.590;2024-03-02T03:48:26;98116.34;;;8.53;93.80
72950;BME280;64868;45.710;9.590;2024-03-02T03:51:17;98111.41;;;8.55;93.89
72950;BME280;64868;45.710;9.590;2024-03-02T03:54:04;98116.84;;;8.55;94.12
72950;BME280;64868;45.710;9.590;2024-03-02T03:56:48;98099.28;;;8.44;94.32
72950;BME280;64868;45.710;9.590;2024-03-02T03:59:17;98114.72;;;8.61;94.42
72950;BME280;64868;45.710;9.590;2024-03-02T04:01:43;98113.47;;;8.58;93.80
72950;BME280;64868;45.710;9.590;2024-03-02T04:04:16;98082.53;;;8.33;94.39
72950;BME280;64868;45.710;9.590;2024-03-02T04:07:12;98122.25;;;8.55;93.72
72950;BME280;64868;45.710;9.590;2024-03-02T04:09:38;98124.13;;;8.55;94.16
72950;BME280;64868;45.710;9.590;2024-03-02T04:12:23;98113.16;;;8.43;94.33
72950;BME280;64868;45.710;9.590;2024-03-02T04:14:49;98130.69;;;8.54;94.96
72950;BME280;64868;45.710;9.590;2024-03-02T04:17:21;98126.84;;;8.55;93.82
72950;BME280;64868;45.710;9.590;2024-03-02T04:19:53;98131.34;;;8.51;94.59
72950;BME280;64868;45.710;9.590;2024-03-02T04:22:21;98134.50;;;8.53;93.78
72950;BME280;64868;45.710;9.590;2024-03-02T04:24:54;98128.81;;;8.46;94.19
72950;BME280;64868;45.710;9.590;2024-03-02T04:27:22;98086.88;;;8.17;94.37
72950;BME280;64868;45.710;9.590;2024-03-02T04:30:00;98096.28;;;8.11;94.63
72950;BME280;64868;45.710;9.590;2024-03-02T04:32:27;98145.34;;;8.44;94.17
72950;BME280;64868;45.710;9.590;2024-03-02T04:35:00;98154.13;;;8.41;94.07
72950;BME280;64868;45.710;9.590;2024-03-02T04:37:40;98131.63;;;8.32;94.88
72950;BME280;64868;45.710;9.590;2024-03-02T04:40:07;98153.81;;;8.43;94.64
72950;BME280;64868;45.710;9.590;2024-03-02T04:43:13;98133.22;;;8.33;93.87
72950;BME280;64868;45.710;9.590;2024-03-02T04:45:42;98162.75;;;8.43;93.95
72950;BME280;64868;45.710;9.590;2024-03-02T04:48:21;98150.50;;;8.37;94.63
72950;BME280;64868;45.710;9.590;2024-03-02T04:50:47;98159.56;;;8.41;93.89
72950;BME280;64868;45.710;9.590;2024-03-02T04:53:31;98157.00;;;8.45;94.12
72950;BME280;64868;45.710;9.590;2024-03-02T04:55:57;98162.59;;;8.40;94.20
72950;BME280;64868;45.710;9.590;2024-03-02T04:59:17;98167.38;;;8.43;94.05
72950;BME280;64868;45.710;9.590;2024-03-02T05:02:00;98162.75;;;8.43;93.88
72950;BME280;64868;45.710;9.590;2024-03-02T05:04:33;98161.94;;;8.43;94.57
72950;BME280;64868;45.710;9.590;2024-03-02T05:07:13;98157.63;;;8.33;94.11
72950;BME280;64868;45.710;9.590;2024-03-02T05:09:39;98169.75;;;8.44;93.82
72950;BME280;64868;45.710;9.590;2024-03-02T05:12:09;98182.03;;;8.42;94.29
72950;BME280;64868;45.710;9.590;2024-03-02T05:15:10;98179.81;;;8.44;94.16
72950;BME280;64868;45.710;9.590;2024-03-02T05:17:36;98171.84;;;8.39;94.79
72950;BME280;64868;45.710;9.590;2024-03-02T05:20:06;98159.72;;;8.27;94.44
72950;BME280;64868;45.710;9.590;2024-03-02T05:22:39;98181.09;;;8.38;94.14
72950;BME280;64868;45.710;9.590;2024-03-02T05:25:07;98181.09;;;8.38;94.70
72950;BME280;64868;45.710;9.590;2024-03-02T05:30:57;98186.34;;;8.43;95.16
72950;BME280;64868;45.710;9.590;2024-03-02T05:36:50;98197.34;;;8.38;94.31
72950;BME280;64868;45.710;9.590;2024-03-02T05:39:31;98190.81;;;8.39;94.12
72950;BME280;64868;45.710;9.590;2024-03-02T05:41:58;98175.16;;;8.27;94.88
72950;BME280;64868;45.710;9.590;2024-03-02T05:44:25;98187.94;;;8.35;95.07
72950;BME280;64868;45.710;9.590;2024-03-02T05:46:53;98191.13;;;8.37;94.45
72950;BME280;64868;45.710;9.590;2024-03-02T05:49:19;98188.53;;;8.32;94.22
72950;BME280;64868;45.710;9.590;2024-03-02T05:51:45;98155.41;;;8.09;94.03
72950;BME280;64868;45.710;9.590;2024-03-02T05:54:14;98196.34;;;8.33;94.59
72950;BME280;64868;45.710;9.590;2024-03-02T05:56:40;98171.34;;;8.19;95.26
72950;BME280;64868;45.710;9.590;2024-03-02T05:59:06;98122.06;;;7.83;95.36
72950;BME280;64868;45.710;9.590;2024-03-02T06:01:51;98199.41;;;8.41;94.68
72950;BME280;64868;45.710;9.590;2024-03-02T06:04:19;98186.00;;;8.27;94.79
72950;BME280;64868;45.710;9.590;2024-03-02T06:06:47;98208.19;;;8.46;94.95
72950;BME280;64868;45.710;9.590;2024-03-02T06:09:16;98161.94;;;8.17;95.21
72950;BME280;64868;45.710;9.590;2024-03-02T06:11:56;98153.94;;;8.12;95.04
72950;BME280;64868;45.710;9.590;2024-03-02T06:14:24;98218.06;;;8.51;94.32
72950;BME280;64868;45.710;9.590;2024-03-02T06:17:11;98225.09;;;8.52;94.66
72950;BME280;64868;45.710;9.590;2024-03-02T06:19:49;98144.09;;;8.07;94.05
72950;BME280;64868;45.710;9.590;2024-03-02T06:22:21;98193.34;;;8.35;94.73
72950;BME280;64868;45.710;9.590;2024-03-02T06:24:50;98189.34;;;8.32;94.47
72950;BME280;64868;45.710;9.590;2024-03-02T06:27:16;98188.88;;;8.30;94.94
72950;BME280;64868;45.710;9.590;2024-03-02T06:29:42;98193.16;;;8.31;94.90
72950;BME280;64868;45.710;9.590;2024-03-02T06:32:08;98229.72;;;8.51;95.46
72950;BME280;64868;45.710;9.590;2024-03-02T06:34:43;98233.22;;;8.52;94.72
72950;BME280;64868;45.710;9.590;2024-03-02T06:37:15;98211.84;;;8.42;95.53
72950;BME280;64868;45.710;9.590;2024-03-02T06:39:41;98225.88;;;8.52;95.26
72950;BME280;64868;45.710;9.590;2024-03-02T06:42:07;98237.84;;;8.60;94.74
72950;BME280;64868;45.710;9.590;2024-03-02T06:44:34;98215.22;;;8.47;95.02
72950;BME280;64868;45.710;9.590;2024-03-02T06:46:59;98179.16;;;8.29;94.34
72950;BME280;64868;45.710;9.590;2024-03-02T06:49:25;98178.81;;;8.22;94.66
72950;BME280;64868;45.710;9.590;2024-03-02T06:51:51;98176.09;;;8.22;94.70
72950;BME280;64868;45.710;9.590;2024-03-02T06:54:30;98201.47;;;8.44;94.08
72950;BME280;64868;45.710;9.590;2024-03-02T06:57:23;98257.44;;;8.83;94.96
72950;BME280;64868;45.710;9.590;2024-03-02T07:03:13;98245.81;;;8.91;93.85
72950;BME280;64868;45.710;9.590;2024-03-02T07:05:39;98264.31;;;9.06;94.01
72950;BME280;64868;45.710;9.590;2024-03-02T07:08:05;98260.78;;;9.06;93.56
72950;BME280;64868;45.710;9.590;2024-03-02T07:10:34;98241.34;;;8.86;93.52
72950;BME280;64868;45.710;9.590;2024-03-02T07:13:01;98250.44;;;8.90;94.33
72950;BME280;64868;45.710;9.590;2024-03-02T07:16:00;98210.25;;;8.67;94.02
72950;BME280;64868;45.710;9.590;2024-03-02T07:19:06;98280.91;;;9.05;93.32
72950;BME280;64868;45.710;9.590;2024-03-02T07:21:54;98285.03;;;9.02;93.13
72950;BME280;64868;45.710;9.590;2024-03-02T07:24:27;98251.88;;;8.79;94.68
72950;BME280;64868;45.710;9.590;2024-03-02T07:26:55;98276.75;;;8.90;94.89
72950;BME280;64868;45.710;9.590;2024-03-02T07:29:39;98288.41;;;8.90;94.12
72950;BME280;64868;45.710;9.590;2024-03-02T07:32:11;98266.22;;;8.71;93.75
72950;BME280;64868;45.710;9.590;2024-03-02T07:34:39;98249.16;;;8.62;94.51
72950;BME280;64868;45.710;9.590;2024-03-02T07:37:09;98262.41;;;8.81;94.34
72950;BME280;64868;45.710;9.590;2024-03-02T07:39:43;98273.91;;;8.86;94.74
72950;BME280;64868;45.710;9.590;2024-03-02T07:42:10;98302.63;;;9.05;94.45
72950;BME280;64868;45.710;9.590;2024-03-02T07:44:48;98230.69;;;8.55;94.65
72950;BME280;64868;45.710;9.590;2024-03-02T07:47:20;98272.31;;;8.85;93.54
72950;BME280;64868;45.710;9.590;2024-03-02T07:49:49;98238.00;;;8.55;93.39
72950;BME280;64868;45.710;9.590;2024-03-02T07:55:40;98268.63;;;8.73;93.43
72950;BME280;64868;45.710;9.590;2024-03-02T07:58:06;98263.53;;;8.71;93.72
72950;BME280;64868;45.710;9.590;2024-03-02T08:03:37;98312.16;;;9.11;93.15
72950;BME280;64868;45.710;9.590;2024-03-02T08:06:03;98323.16;;;9.23;94.38
72950;BME280;64868;45.710;9.590;2024-03-02T08:08:30;98322.03;;;9.24;92.91
72950;BME280;64868;45.710;9.590;2024-03-02T08:11:14;98317.59;;;9.19;93.26
72950;BME280;64868;45.710;9.590;2024-03-02T08:13:42;98335.59;;;9.24;93.98
72950;BME280;64868;45.710;9.590;2024-03-02T08:19:12;98337.38;;;9.37;93.09
72950;BME280;64868;45.710;9.590;2024-03-02T08:21:57;98327.16;;;9.34;93.09
72950;BME280;64868;45.710;9.590;2024-03-02T08:24:24;98336.72;;;9.40;92.27
72950;BME280;64868;45.710;9.590;2024-03-02T08:26:53;98337.34;;;9.55;92.04
72950;BME280;64868;45.710;9.590;2024-03-02T08:29:40;98342.72;;;9.63;92.70
72950;BME280;64868;45.710;9.590;2024-03-02T08:32:09;98338.75;;;9.61;92.35
72950;BME280;64868;45.710;9.590;2024-03-02T08:34:47;98345.31;;;9.60;92.01
72950;BME280;64868;45.710;9.590;2024-03-02T08:37:21;98343.38;;;9.60;92.54
72950;BME280;64868;45.710;9.590;2024-03-02T08:39:46;98347.38;;;9.63;92.48
72950;BME280;64868;45.710;9.590;2024-03-02T08:42:13;98351.84;;;9.59;91.88
72950;BME280;64868;45.710;9.590;2024-03-02T08:44:39;98327.63;;;9.45;92.63
72950;BME280;64868;45.710;9.590;2024-03-02T08:47:05;98341.81;;;9.51;92.89
72950;BME280;64868;45.710;9.590;2024-03-02T08:49:36;98317.09;;;9.35;92.57
72950;BME280;64868;45.710;9.590;2024-03-02T08:52:02;98328.69;;;9.53;92.46
72950;BME280;64868;45.710;9.590;2024-03-02T08:54:35;98361.25;;;9.70;92.98
72950;BME280;64868;45.710;9.590;2024-03-02T08:57:01;98359.81;;;9.72;91.87
72950;BME280;64868;45.710;9.590;2024-03-02T08:59:28;98361.09;;;9.75;91.73
72950;BME280;64868;45.710;9.590;2024-03-02T09:01:59;98338.13;;;9.64;92.01
72950;BME280;64868;45.710;9.590;2024-03-02T09:04:25;98354.03;;;9.83;91.12
72950;BME280;64868;45.710;9.590;2024-03-02T09:06:53;98351.16;;;9.79;91.68
72950;BME280;64868;45.710;9.590;2024-03-02T09:09:19;98358.00;;;9.94;90.62
72950;BME280;64868;45.710;9.590;2024-03-02T09:11:48;98318.41;;;9.84;91.02
72950;BME280;64868;45.710;9.590;2024-03-02T09:14:15;98375.50;;;10.14;91.71
72950;BME280;64868;45.710;9.590;2024-03-02T09:16:43;98312.22;;;9.66;91.20
72950;BME280;64868;45.710;9.590;2024-03-02T09:19:10;98369.69;;;9.86;89.75
72950;BME280;64868;45.710;9.590;2024-03-02T09:21:41;98316.94;;;9.31;90.37
72950;BME280;64868;45.710;9.590;2024-03-02T09:24:10;98280.41;;;9.20;91.02
72950;BME280;64868;45.710;9.590;2024-03-02T09:26:43;98320.59;;;9.44;91.21
72950;BME280;64868;45.710;9.590;2024-03-02T09:29:10;98311.50;;;9.31;91.62
72950;BME280;64868;45.710;9.590;2024-03-02T09:31:42;98305.28;;;9.31;91.00
72950;BME280;64868;45.710;9.590;2024-03-02T09:34:14;98336.38;;;9.51;91.05
72950;BME280;64868;45.710;9.590;2024-03-02T09:36:44;98307.66;;;9.32;90.51
72950;BME280;64868;45.710;9.590;2024-03-02T09:39:11;98296.00;;;9.40;91.96
72950;BME280;64868;45.710;9.590;2024-03-02T09:41:40;98297.72;;;9.54;91.07
72950;BME280;64868;45.710;9.590;2024-03-02T09:44:12;98318.09;;;9.77;90.15
72950;BME280;64868;45.710;9.590;2024-03-02T09:49:59;98392.28;;;10.16;89.48
72950;BME280;64868;45.710;9.590;2024-03-02T09:52:48;98395.59;;;10.30;90.18
72950;BME280;64868;45.710;9.590;2024-03-02T09:55:16;98392.84;;;10.39;90.71
72950;BME280;64868;45.710;9.590;2024-03-02T09:58:05;98395.06;;;10.45;89.74
72950;BME280;64868;45.710;9.590;2024-03-02T10:00:31;98395.63;;;10.59;89.48
72950;BME280;64868;45.710;9.590;2024-03-02T10:06:30;98381.44;;;10.54;88.57
72950;BME280;64868;45.710;9.590;2024-03-02T10:08:56;98387.47;;;10.59;87.67
72950;BME280;64868;45.710;9.590;2024-03-02T10:11:33;98381.13;;;10.76;88.80
72950;BME280;64868;45.710;9.590;2024-03-02T10:16:28;98324.84;;;10.47;84.74
72950;BME280;64868;45.710;9.590;2024-03-02T10:25:51;98342.91;;;11.14;84.88
72950;BME280;64868;45.710;9.590;2024-03-02T10:28:22;98301.03;;;10.86;84.81
72950;BME280;64868;45.710;9.590;2024-03-02T10:30:48;98376.28;;;11.44;84.96
72950;BME280;64868;45.710;9.590;2024-03-02T10:33:17;98300.78;;;11.33;84.58
72950;BME280;64868;45.710;9.590;2024-03-02T10:35:45;98358.34;;;11.76;83.63
72950;BME280;64868;45.710;9.590;2024-03-02T10:38:12;98375.69;;;11.93;82.06
72950;BME280;64868;45.710;9.590;2024-03-02T10:40:39;98297.22;;;11.53;82.55
72950;BME280;64868;45.710;9.590;2024-03-02T10:43:06;98370.84;;;12.47;81.03
72950;BME280;64868;45.710;9.590;2024-03-02T10:45:39;98313.91;;;12.21;79.28
72950;BME280;64868;45.710;9.590;2024-03-02T10:48:06;98304.25;;;12.12;79.38
72950;BME280;64868;45.710;9.590;2024-03-02T10:50:50;98366.28;;;12.63;80.19
72950;BME280;64868;45.710;9.590;2024-03-02T10:53:39;98367.44;;;12.62;79.97
72950;BME280;64868;45.710;9.590;2024-03-02T10:59:14;98365.69;;;12.09;82.26
72950;BME280;64868;45.710;9.590;2024-03-02T11:01:43;98317.06;;;11.99;82.01
72950;BME280;64868;45.710;9.590;2024-03-02T11:04:11;98307.66;;;13.38;77.80
72950;BME280;64868;45.710;9.590;2024-03-02T11:06:48;98309.44;;;14.41;69.91
72950;BME280;64868;45.710;9.590;2024-03-02T11:09:20;98364.63;;;14.27;69.84
72950;BME280;64868;45.710;9.590;2024-03-02T11:11:51;98358.72;;;13.65;72.41
72950;BME280;64868;45.710;9.590;2024-03-02T11:14:24;98359.72;;;13.05;75.80
72950;BME280;64868;45.710;9.590;2024-03-02T11:16:57;98281.53;;;12.07;76.57
72950;BME280;64868;45.710;9.590;2024-03-02T11:19:38;98314.22;;;12.07;78.04
72950;BME280;64868;45.710;9.590;2024-03-02T11:22:08;98322.50;;;11.99;79.07
72950;BME280;64868;45.710;9.590;2024-03-02T11:24:55;98362.50;;;12.07;79.03
72950;BME280;64868;45.710;9.590;2024-03-02T11:33:27;98364.06;;;11.84;78.65
72950;BME280;64868;45.710;9.590;2024-03-02T11:36:06;98355.84;;;11.71;78.63
72950;BME280;64868;45.710;9.590;2024-03-02T11:39:01;98364.22;;;11.66;79.72
72950;BME280;64868;45.710;9.590;2024-03-02T11:41:48;98326.28;;;11.28;80.54
72950;BME280;64868;45.710;9.590;2024-03-02T11:44:48;98355.63;;;11.43;81.21
72950;BME280;64868;45.710;9.590;2024-03-02T11:47:15;98275.50;;;10.78;81.53
72950;BME280;64868;45.710;9.590;2024-03-02T11:49:45;98274.63;;;10.86;81.23
72950;BME280;64868;45.710;9.590;2024-03-02T11:55:46;98314.78;;;11.43;80.39
72950;BME280;64868;45.710;9.590;2024-03-02T11:58:36;98299.59;;;11.55;80.09
72950;BME280;64868;45.710;9.590;2024-03-02T12:01:03;98296.09;;;11.54;78.73
72950;BME280;64868;45.710;9.590;2024-03-02T12:03:46;98267.66;;;11.31;78.75
72950;BME280;64868;45.710;9.590;2024-03-02T12:06:19;98269.69;;;11.22;79.89
72950;BME280;64868;45.710;9.590;2024-03-02T12:09:09;98347.31;;;11.73;80.58
72950;BME280;64868;45.710;9.590;2024-03-02T12:12:06;98338.69;;;11.71;79.61
72950;BME280;64868;45.710;9.590;2024-03-02T12:14:54;98255.91;;;11.18;79.95
72950;BME280;64868;45.710;9.590;2024-03-02T12:20:45;98298.22;;;11.48;79.54
72950;BME280;64868;45.710;9.590;2024-03-02T12:26:41;98303.94;;;11.23;81.12
72950;BME280;64868;45.710;9.590;2024-03-02T12:29:29;98302.28;;;11.09;82.87
72950;BME280;64868;45.710;9.590;2024-03-02T12:32:20;98266.84;;;10.97;82.68
72950;BME280;64868;45.710;9.590;2024-03-02T12:34:51;98321.72;;;11.41;81.93
72950;BME280;64868;45.710;9.590;2024-03-02T12:37:49;98313.66;;;11.44;81.97
72950;BME280;64868;45.710;9.590;2024-03-02T12:40:51;98238.09;;;10.75;82.58
72950;BME280;64868;45.710;9.590;2024-03-02T12:43:53;98234.38;;;10.59;82.91
72950;BME280;64868;45.710;9.590;2024-03-02T12:49:56;98265.22;;;10.63;86.10
72950;BME280;64868;45.710;9.590;2024-03-02T12:59:36;98222.28;;;10.69;85.29
72950;BME280;64868;45.710;9.590;2024-03-02T13:02:49;98230.00;;;10.67;84.27
72950;BME280;64868;45.710;9.590;2024-03-02T13:05:31;98228.59;;;10.60;85.80
72950;BME280;64868;45.710;9.590;2024-03-02T13:08:01;98223.63;;;10.62;83.57
72950;BME280;64868;45.710;9.590;2024-03-02T13:10:34;98224.34;;;10.72;83.96
72950;BME280;64868;45.710;9.590;2024-03-02T13:13:09;98310.94;;;11.11;83.36
72950;BME280;64868;45.710;9.590;2024-03-02T13:16:16;98300.44;;;11.01;84.10
72950;BME280;64868;45.710;9.590;2024-03-02T13:18:55;98218.00;;;10.47;83.18
72950;BME280;64868;45.710;9.590;2024-03-02T13:21:51;98267.97;;;10.96;82.95
72950;BME280;64868;45.710;9.590;2024-03-02T13:24:20;98301.06;;;11.19;81.96
72950;BME280;64868;45.710;9.590;2024-03-02T13:26:51;98213.28;;;10.56;81.88
72950;BME280;64868;45.710;9.590;2024-03-02T13:29:32;98272.19;;;10.73;83.13
72950;BME280;64868;45.710;9.590;2024-03-02T13:32:05;98304.75;;;11.02;83.55
72950;BME280;64868;45.710;9.590;2024-03-02T13:34:38;98260.44;;;10.60;84.49
72950;BME280;64868;45.710;9.590;2024-03-02T13:37:44;98312.13;;;10.81;85.59
72950;BME280;64868;45.710;9.590;2024-03-02T13:40:12;98238.97;;;10.17;85.30
72950;BME280;64868;45.710;9.590;2024-03-02T13:42:46;98318.63;;;10.68;85.67
72950;BME280;64868;45.710;9.590;2024-03-02T13:45:25;98276.66;;;10.27;85.43
72950;BME280;64868;45.710;9.590;2024-03-02T13:47:52;98233.56;;;10.08;87.10
72950;BME280;64868;45.710;9.590;2024-03-02T13:50:24;98238.34;;;10.11;86.31
72950;BME280;64868;45.710;9.590;2024-03-02T13:53:00;98226.63;;;10.19;84.76
72950;BME280;64868;45.710;9.590;2024-03-02T13:55:33;98315.44;;;10.66;85.91
72950;BME280;64868;45.710;9.590;2024-03-02T13:58:15;98293.00;;;10.48;86.91
72950;BME280;64868;45.710;9.590;2024-03-02T14:00:49;98309.31;;;10.48;87.65
72950;BME280;64868;45.710;9.590;2024-03-02T14:03:20;98208.41;;;9.90;86.98
72950;BME280;64868;45.710;9.590;2024-03-02T14:05:55;98223.88;;;9.98;87.04
72950;BME280;64868;45.710;9.590;2024-03-02T14:08:27;98226.09;;;10.05;87.85
72950;BME280;64868;45.710;9.590;2024-03-02T14:11:08;98303.53;;;10.49;84.56
72950;BME280;64868;45.710;9.590;2024-03-02T14:13:50;98300.88;;;10.41;86.16
72950;BME280;64868;45.710;9.590;2024-03-02T14:16:28;98306.00;;;10.42;85.88
72950;BME280;64868;45.710;9.590;2024-03-02T14:19:00;98230.56;;;10.01;85.32
72950;BME280;64868;45.710;9.590;2024-03-02T14:21:32;98242.94;;;10.19;86.39
72950;BME280;64868;45.710;9.590;2024-03-02T14:24:09;98305.34;;;10.66;85.47
72950;BME280;64868;45.710;9.590;2024-03-02T14:26:40;98226.03;;;10.14;86.08
72950;BME280;64868;45.710;9.590;2024-03-02T14:29:11;98209.13;;;10.08;86.13
72950;BME280;64868;45.710;9.590;2024-03-02T14:31:41;98269.13;;;10.53;85.87
72950;BME280;64868;45.710;9.590;2024-03-02T14:34:11;98264.34;;;10.50;84.87
72950;BME280;64868;45.710;9.590;2024-03-02T14:39:34;98281.34;;;10.68;85.06
72950;BME280;64868;45.710;9.590;2024-03-02T14:44:47;98246.25;;;10.75;85.01
72950;BME280;64868;45.710;9.590;2024-03-02T14:47:17;98235.44;;;11.00;83.79
72950;BME280;64868;45.710;9.590;2024-03-02T14:49:56;98206.03;;;11.14;81.50
72950;BME280;64868;45.710;9.590;2024-03-02T14:57:57;98207.78;;;10.98;80.51
72950;BME280;64868;45.710;9.590;2024-03-02T15:01:00;98276.06;;;11.38;80.76
72950;BME280;64868;45.710;9.590;2024-03-02T15:03:40;98195.47;;;10.79;80.46
72950;BME280;64868;45.710;9.590;2024-03-02T15:06:11;98200.25;;;10.61;82.09
72950;BME280;64868;45.710;9.590;2024-03-02T15:08:54;98275.56;;;11.24;81.29
72950;BME280;64868;45.710;9.590;2024-03-02T15:14:30;98219.75;;;11.17;81.07
72950;BME280;64868;45.710;9.590;2024-03-02T15:17:04;98203.66;;;11.25;81.08
72950;BME280;64868;45.710;9.590;2024-03-02T15:20:03;98189.69;;;11.14;80.01
72950;BME280;64868;45.710;9.590;2024-03-02T15:28:17;98232.91;;;11.15;80.07
72950;BME280;64868;45.710;9.590;2024-03-02T15:31:10;98213.38;;;11.01;79.21